Time;durP1;ratioP1;P1;durP2;ratioP2;P2;SDS_P1;SDS_P2;PMS_P1;PMS_P2;Temp;Humidity;BMP_temperature;BMP_pressure;BME280_temperature;BME280_humidity;BME280_pressure;Samples;Min_cycle;Max_cycle;Signal;HPM_P1;HPM_P2
2022/09/02 00:01:32;;;;;;;;;12.50;11.00;;;;;23.60;40.40;101083.06;5073479;27;50706;-66
2022/09/02 00:04:02;;;;;;;;;10.00;8.50;;;;;23.62;40.45;101078.53;5073585;27;49905;-66
2022/09/02 00:06:29;;;;;;;;;10.25;9.50;;;;;23.58;40.41;101074.19;5073309;27;49990;-66
2022/09/02 00:08:54;;;;;;;;;10.50;9.00;;;;;23.52;40.33;101060.94;5073473;27;49795;-66
2022/09/02 00:11:22;;;;;;;;;9.50;9.00;;;;;23.59;40.32;101069.72;5073103;27;49711;-65
2022/09/02 00:13:49;;;;;;;;;9.75;9.00;;;;;23.60;40.47;101067.00;5073233;27;49831;-66
2022/09/02 00:16:16;;;;;;;;;9.00;9.00;;;;;23.60;40.41;101075.03;5073430;27;49758;-65
2022/09/02 00:18:43;;;;;;;;;7.00;7.00;;;;;23.63;40.46;101071.38;5073446;27;49577;-65
2022/09/02 00:21:10;;;;;;;;;6.50;6.50;;;;;23.46;40.50;101039.69;5073135;27;49707;-65
2022/09/02 00:23:37;;;;;;;;;9.00;9.00;;;;;23.46;40.47;101047.72;5073244;27;49919;-65
2022/09/02 00:26:03;;;;;;;;;10.75;9.00;;;;;23.47;40.65;101057.53;5076388;27;49824;-65
2022/09/02 00:28:28;;;;;;;;;8.75;8.50;;;;;23.42;40.77;101046.91;5072775;27;49599;-65
2022/09/02 00:30:53;;;;;;;;;6.50;6.50;;;;;23.51;40.99;101056.50;5072946;27;50586;-65
2022/09/02 00:33:19;;;;;;;;;7.00;7.00;;;;;23.46;41.03;101057.56;5073396;27;49774;-65
2022/09/02 00:35:44;;;;;;;;;7.25;7.25;;;;;23.46;41.28;101054.88;5072725;27;49740;-66
2022/09/02 00:38:10;;;;;;;;;8.50;6.50;;;;;23.43;41.13;101050.47;5073269;27;50030;-65
2022/09/02 00:40:36;;;;;;;;;10.25;7.75;;;;;23.34;41.47;101037.31;5072902;27;50764;-64
2022/09/02 00:43:05;;;;;;;;;6.50;6.50;;;;;23.41;41.38;101046.97;5072888;27;50011;-65
2022/09/02 00:45:34;;;;;;;;;8.25;7.25;;;;;23.33;41.51;101040.94;5072331;27;49711;-66
2022/09/02 00:48:00;;;;;;;;;8.75;8.75;;;;;23.31;41.51;101035.63;5073035;27;49872;-68
2022/09/02 00:50:29;;;;;;;;;8.00;7.25;;;;;23.32;41.50;101050.78;5072593;27;49737;-66
2022/09/02 00:52:59;;;;;;;;;9.75;9.75;;;;;23.32;41.67;101050.78;5072932;27;49994;-66
2022/09/02 00:55:29;;;;;;;;;9.50;9.50;;;;;23.21;41.89;101028.75;5072708;27;49894;-66
2022/09/02 00:58:02;;;;;;;;;9.50;9.50;;;;;23.26;41.90;101037.56;5072846;27;49760;-66
2022/09/02 01:00:33;;;;;;;;;12.25;9.50;;;;;23.24;41.74;101043.84;5072574;27;50124;-66
2022/09/02 01:03:02;;;;;;;;;8.50;8.25;;;;;23.19;41.75;101040.44;5072541;27;49592;-66
2022/09/02 01:05:32;;;;;;;;;9.00;8.50;;;;;23.03;42.06;101027.44;5072273;27;49778;-66
2022/09/02 01:07:58;;;;;;;;;8.50;8.50;;;;;23.07;42.22;101042.53;5072690;27;49645;-66
2022/09/02 01:10:27;;;;;;;;;7.00;7.00;;;;;23.08;42.25;101040.72;5072454;27;51017;-67
2022/09/02 01:12:57;;;;;;;;;12.00;10.75;;;;;23.06;42.37;101051.47;5072458;27;50347;-66
2022/09/02 01:15:23;;;;;;;;;10.00;8.50;;;;;22.85;42.29;101009.19;5072547;27;49938;-66
2022/09/02 01:17:50;;;;;;;;;12.25;9.00;;;;;23.00;42.17;101038.25;5072549;27;49887;-66
2022/09/02 01:20:23;;;;;;;;;9.50;8.50;;;;;22.99;42.14;101033.81;5071764;27;50755;-65
2022/09/02 01:22:49;;;;;;;;;6.75;6.75;;;;;23.05;42.38;101043.47;5072298;27;49755;-65
2022/09/02 01:25:21;;;;;;;;;8.00;8.00;;;;;22.88;42.26;101019.84;5072244;27;49819;-66
2022/09/02 01:27:47;;;;;;;;;11.50;10.25;;;;;22.89;42.64;101034.09;5072227;27;49780;-66
2022/09/02 01:30:18;;;;;;;;;9.00;8.00;;;;;22.88;42.81;101038.56;5072258;27;51154;-65
2022/09/02 01:32:43;;;;;;;;;8.25;8.25;;;;;22.84;42.71;101034.19;5072151;27;50426;-65
2022/09/02 01:35:10;;;;;;;;;7.75;7.75;;;;;22.87;42.93;101030.56;5071831;27;49716;-65
2022/09/02 01:37:37;;;;;;;;;7.00;7.00;;;;;22.90;42.81;101031.38;5072245;27;49876;-65
2022/09/02 01:40:08;;;;;;;;;8.00;7.25;;;;;22.78;42.77;101020.97;5071768;27;50426;-65
2022/09/02 01:42:33;;;;;;;;;6.75;6.75;;;;;22.77;42.64;101027.19;5071919;27;49865;-66
2022/09/02 01:44:59;;;;;;;;;8.25;7.50;;;;;22.69;42.85;101013.16;5071939;27;50040;-66
2022/09/02 01:47:26;;;;;;;;;13.00;12.50;;;;;22.78;43.11;101037.91;5072216;27;49649;-65
2022/09/02 01:49:51;;;;;;;;;10.00;9.50;;;;;22.79;42.94;101039.66;5070140;27;51285;-65
2022/09/02 01:52:18;;;;;;;;;10.50;10.50;;;;;22.74;42.97;101029.97;5071719;27;49795;-68
2022/09/02 01:54:45;;;;;;;;;13.00;12.25;;;;;22.52;43.08;100992.16;5071973;27;49927;-66
2022/09/02 01:57:11;;;;;;;;;11.75;11.75;;;;;22.46;43.14;100990.50;5071792;27;49896;-66
2022/09/02 01:59:37;;;;;;;;;14.25;13.00;;;;;22.48;43.49;101017.22;5071594;27;49824;-66
2022/09/02 02:02:03;;;;;;;;;18.00;15.00;;;;;22.69;43.54;101055.97;5071460;27;49896;-66
2022/09/02 02:04:29;;;;;;;;;12.50;12.00;;;;;22.72;43.69;101078.19;5071650;27;49781;-66
2022/09/02 02:06:54;;;;;;;;;13.25;11.50;;;;;22.81;43.53;101099.38;5071775;27;49699;-66
2022/09/02 02:09:20;;;;;;;;;16.75;15.50;;;;;22.89;43.83;101063.53;5071414;27;50710;-66
2022/09/02 02:11:46;;;;;;;;;11.00;10.75;;;;;22.69;44.02;101043.47;5071432;27;49888;-66
2022/09/02 02:14:12;;;;;;;;;14.50;12.25;;;;;22.69;44.03;101091.66;5071500;27;50134;-66
2022/09/02 02:16:37;;;;;;;;;16.50;15.00;;;;;22.62;45.02;101057.03;5071224;27;50000;-66
2022/09/02 02:19:04;;;;;;;;;13.50;13.50;;;;;22.80;45.47;101100.28;5069823;27;52487;-66
2022/09/02 02:21:30;;;;;;;;;16.75;15.75;;;;;22.85;47.46;101098.41;5071198;27;49780;-66
2022/09/02 02:23:56;;;;;;;;;11.25;11.25;;;;;22.83;46.76;101067.22;5071375;27;49855;-66
2022/09/02 02:26:21;;;;;;;;;11.75;11.75;;;;;22.84;46.80;101072.56;5071398;27;49940;-66
2022/09/02 02:28:47;;;;;;;;;11.75;11.75;;;;;22.85;47.77;101068.94;5071166;27;49847;-66
2022/09/02 02:31:12;;;;;;;;;14.75;13.75;;;;;22.78;49.12;101063.78;5071052;27;49692;-67
2022/09/02 02:33:38;;;;;;;;;18.00;17.75;;;;;22.75;48.14;101078.09;5071034;27;49977;-65
2022/09/02 02:36:06;;;;;;;;;25.75;23.75;;;;;22.81;48.61;101090.47;5071046;27;49811;-66
2022/09/02 02:38:35;;;;;;;;;22.75;22.50;;;;;22.74;49.31;101089.72;5070921;27;51101;-66
2022/09/02 02:41:01;;;;;;;;;25.50;22.75;;;;;22.65;48.99;101076.56;5090803;27;49907;-66
2022/09/02 02:43:27;;;;;;;;;22.75;21.75;;;;;22.72;49.53;101091.56;5090780;27;50012;-66
2022/09/02 02:45:55;;;;;;;;;17.25;15.75;;;;;22.57;49.66;101067.81;5090858;27;49752;-66
2022/09/02 02:48:21;;;;;;;;;31.50;30.00;;;;;22.59;50.02;101084.75;5090331;27;49816;-66
2022/09/02 02:50:46;;;;;;;;;22.25;22.25;;;;;22.38;50.10;101053.13;5090314;27;50299;-66
2022/09/02 02:53:12;;;;;;;;;21.75;21.75;;;;;22.51;50.37;101087.59;5090360;27;50136;-66
2022/09/02 02:55:38;;;;;;;;;21.00;18.25;;;;;22.39;51.25;101074.53;5090670;27;49764;-66
2022/09/02 02:58:05;;;;;;;;;16.25;15.75;;;;;22.31;51.45;101072.94;5090287;27;50492;-66
2022/09/02 03:00:32;;;;;;;;;17.25;17.25;;;;;22.24;51.67;101078.41;5090475;27;49980;-66
2022/09/02 03:03:03;;;;;;;;;18.25;15.75;;;;;22.30;52.14;101076.53;5090384;27;49246;-66
2022/09/02 03:05:29;;;;;;;;;15.00;14.75;;;;;22.21;52.22;101057.09;5090440;27;49917;-66
2022/09/02 03:07:55;;;;;;;;;15.00;14.25;;;;;22.26;52.08;101056.97;5090117;27;49736;-67
2022/09/02 03:10:22;;;;;;;;;12.75;12.75;;;;;22.32;52.20;101064.88;5089664;27;50010;-65
2022/09/02 03:12:48;;;;;;;;;14.25;14.25;;;;;22.27;52.45;101061.41;5090112;27;49879;-66
2022/09/02 03:15:16;;;;;;;;;15.75;14.75;;;;;22.22;52.54;101066.88;5089541;27;49723;-66
2022/09/02 03:17:46;;;;;;;;;19.75;17.25;;;;;22.10;52.63;101058.22;5070449;27;49993;-66
2022/09/02 03:20:11;;;;;;;;;9.75;9.75;;;;;21.96;53.34;101064.72;5070080;27;49819;-67
2022/09/02 03:22:37;;;;;;;;;10.25;9.25;;;;;21.55;55.22;101032.63;5079737;27;49629;-66
2022/09/02 03:25:05;;;;;;;;;13.00;11.75;;;;;21.63;55.61;101044.94;5080739;27;49821;-66
2022/09/02 03:27:30;;;;;;;;;15.25;12.25;;;;;21.66;55.53;101038.63;5078631;27;50741;-66
2022/09/02 03:29:56;;;;;;;;;14.00;13.00;;;;;21.73;55.28;101032.25;5071080;27;57757;-66
2022/09/02 03:32:21;;;;;;;;;11.50;11.50;;;;;21.76;55.70;101025.97;5075161;27;50112;-66
2022/09/02 03:34:47;;;;;;;;;13.25;13.25;;;;;21.73;56.09;101026.03;5084360;27;49923;-67
2022/09/02 03:37:12;;;;;;;;;14.00;14.00;;;;;21.59;56.64;101035.19;5087228;27;49817;-66
2022/09/02 03:39:39;;;;;;;;;12.25;12.25;;;;;21.53;56.69;101039.81;5081206;27;49722;-66
2022/09/02 03:42:05;;;;;;;;;14.00;13.25;;;;;21.57;56.63;101028.13;5071130;27;49886;-65
2022/09/02 03:44:33;;;;;;;;;15.25;14.75;;;;;21.70;56.60;101040.31;5070479;27;50135;-66
2022/09/02 03:46:58;;;;;;;;;14.00;14.00;;;;;21.65;56.93;101021.72;5074033;27;49955;-65
2022/09/02 03:49:26;;;;;;;;;14.25;13.75;;;;;21.64;56.89;101025.31;5070241;27;49936;-65
2022/09/02 03:51:51;;;;;;;;;12.75;12.25;;;;;21.66;57.29;101031.50;5077022;27;50314;-66
2022/09/02 03:54:17;;;;;;;;;13.50;13.50;;;;;21.62;57.57;101015.59;5078111;27;49873;-64
2022/09/02 03:56:42;;;;;;;;;12.75;12.75;;;;;21.59;57.76;101008.50;5070083;27;49736;-66
2022/09/02 03:59:07;;;;;;;;;13.00;12.25;;;;;21.68;57.85;101019.00;5074231;27;61194;-66
2022/09/02 04:01:34;;;;;;;;;10.50;9.50;;;;;21.74;57.97;101026.00;5074097;27;50108;-66
2022/09/02 04:04:00;;;;;;;;;13.50;12.00;;;;;21.67;58.72;101013.69;5072269;27;50034;-68
2022/09/02 04:06:26;;;;;;;;;10.50;10.50;;;;;21.57;58.96;101018.34;5069513;27;51730;-65
2022/09/02 04:08:51;;;;;;;;;9.50;9.50;;;;;21.50;59.21;101008.69;5071609;27;49849;-66
2022/09/02 04:11:19;;;;;;;;;13.00;11.75;;;;;21.57;59.74;101025.47;5071413;27;49766;-66
2022/09/02 04:13:46;;;;;;;;;12.00;12.00;;;;;21.55;59.31;101019.28;5074544;27;49996;-66
2022/09/02 04:16:19;;;;;;;;;8.25;7.25;;;;;21.61;59.72;101024.47;5077045;27;50903;-66
2022/09/02 04:18:44;;;;;;;;;10.75;9.75;;;;;21.46;59.76;101003.44;5068582;27;49687;-67
2022/09/02 04:21:11;;;;;;;;;11.00;9.75;;;;;21.34;60.65;101015.25;5072401;27;49890;-66
2022/09/02 04:23:36;;;;;;;;;11.00;10.00;;;;;21.28;60.78;101007.34;5076015;27;49735;-66
2022/09/02 04:26:07;;;;;;;;;13.25;12.75;;;;;21.22;61.16;101008.31;5084886;27;49813;-66
2022/09/02 04:28:34;;;;;;;;;13.75;13.00;;;;;21.13;61.67;101001.38;5073197;27;49993;-66
2022/09/02 04:31:03;;;;;;;;;11.00;10.00;;;;;21.13;61.58;101011.13;5086749;27;49885;-65
2022/09/02 04:33:28;;;;;;;;;10.25;10.25;;;;;21.15;61.62;101004.00;5075463;27;49946;-66
2022/09/02 04:35:53;;;;;;;;;10.00;9.00;;;;;21.21;61.16;101009.22;5072588;27;50424;-65
2022/09/02 04:38:19;;;;;;;;;11.75;11.75;;;;;21.34;60.76;101017.94;5075118;27;49738;-66
2022/09/02 04:40:46;;;;;;;;;13.00;13.00;;;;;21.38;61.17;101006.25;5073847;27;49799;-65
2022/09/02 04:43:13;;;;;;;;;15.00;15.00;;;;;21.26;63.49;100996.69;5078687;27;49959;-66
2022/09/02 04:45:43;;;;;;;;;15.75;15.00;;;;;21.05;71.04;101000.63;5083695;27;51195;-66
2022/09/02 04:48:09;;;;;;;;;15.75;15.75;;;;;20.95;72.05;101009.72;5079110;27;49654;-65
2022/09/02 04:50:36;;;;;;;;;18.25;15.00;;;;;21.00;73.51;101023.84;5073571;27;49818;-66
2022/09/02 04:53:01;;;;;;;;;13.50;12.00;;;;;20.94;71.61;101018.63;5071981;27;49969;-65
2022/09/02 04:55:27;;;;;;;;;16.75;13.75;;;;;20.98;72.63;101025.66;5076756;27;49881;-69
2022/09/02 04:57:52;;;;;;;;;15.50;14.75;;;;;21.04;73.92;101028.22;5082213;27;49816;-65
2022/09/02 05:00:18;;;;;;;;;17.75;15.25;;;;;20.94;71.94;101023.97;5081621;27;49724;-65
2022/09/02 05:02:43;;;;;;;;;14.75;12.75;;;;;20.76;71.96;100984.25;5073109;27;49759;-67
2022/09/02 05:05:09;;;;;;;;;14.00;12.50;;;;;20.76;72.72;100998.47;5079460;27;49867;-66
2022/09/02 05:07:37;;;;;;;;;13.25;13.25;;;;;20.70;73.38;101001.25;5085726;27;49738;-66
2022/09/02 05:10:04;;;;;;;;;16.00;16.00;;;;;20.55;72.55;100985.50;5080071;27;49853;-68
2022/09/02 05:12:32;;;;;;;;;14.50;13.25;;;;;20.49;73.25;100988.28;5080167;27;50227;-65
2022/09/02 05:14:59;;;;;;;;;14.75;13.75;;;;;20.33;73.09;100965.38;5072392;27;49798;-66
2022/09/02 05:17:25;;;;;;;;;18.00;16.50;;;;;20.35;73.80;100977.78;5071905;27;49653;-66
2022/09/02 05:19:51;;;;;;;;;13.25;13.25;;;;;20.37;73.19;100996.44;5074448;27;49795;-66
2022/09/02 05:22:18;;;;;;;;;14.25;13.25;;;;;20.24;72.92;100972.63;5080084;27;49709;-65
2022/09/02 05:24:44;;;;;;;;;12.25;11.25;;;;;20.35;73.17;100991.09;5085107;27;50806;-65
2022/09/02 05:27:10;;;;;;;;;16.75;15.00;;;;;20.30;74.65;101006.31;5080233;27;49733;-65
2022/09/02 05:29:35;;;;;;;;;16.50;14.75;;;;;20.20;74.00;100992.25;5077936;27;49847;-66
2022/09/02 05:32:02;;;;;;;;;16.75;15.00;;;;;20.06;74.60;100977.34;5084610;27;50511;-66
2022/09/02 05:34:28;;;;;;;;;16.25;15.50;;;;;19.94;74.15;100959.75;5077757;27;49963;-65
2022/09/02 05:36:53;;;;;;;;;17.25;13.50;;;;;20.14;73.11;100986.13;5090582;27;49749;-66
2022/09/02 05:39:18;;;;;;;;;16.50;15.25;;;;;20.06;73.05;100988.88;5084283;27;57753;-67
2022/09/02 05:41:44;;;;;;;;;15.25;15.25;;;;;20.07;73.24;100985.31;5085054;27;49770;-66
2022/09/02 05:44:10;;;;;;;;;9.50;9.50;;;;;20.12;72.24;101007.47;5086898;27;49655;-65
2022/09/02 05:46:35;;;;;;;;;16.50;15.25;;;;;20.00;72.57;100995.19;5078233;27;49902;-66
2022/09/02 05:49:05;;;;;;;;;14.00;12.50;;;;;19.87;72.47;100982.94;5073847;27;49865;-68
2022/09/02 05:51:38;;;;;;;;;16.75;14.75;;;;;19.92;72.18;101010.41;5084482;27;50084;-66
2022/09/02 05:54:03;;;;;;;;;28.50;26.00;;;;;19.75;72.48;100974.25;5089328;27;50716;-72
2022/09/02 05:56:29;;;;;;;;;22.50;22.00;;;;;19.85;71.81;100992.75;5077849;27;49627;-73
2022/09/02 05:58:56;;;;;;;;;21.75;21.25;;;;;19.82;72.20;100974.16;5082065;27;49966;-76
2022/09/02 06:01:22;;;;;;;;;26.00;21.50;;;;;19.56;72.43;100944.31;5074614;27;49779;-74
2022/09/02 06:03:47;;;;;;;;;20.00;18.25;;;;;19.68;72.83;100968.09;5072264;27;49792;-76
2022/09/02 06:06:12;;;;;;;;;26.25;22.75;;;;;19.92;72.68;101005.09;5079183;27;49906;-75
2022/09/02 06:08:38;;;;;;;;;18.00;17.75;;;;;19.69;72.66;100961.91;5078659;27;49693;-76
2022/09/02 06:11:08;;;;;;;;;22.25;18.25;;;;;19.83;71.91;100997.22;5081254;27;49800;-73
2022/09/02 06:13:36;;;;;;;;;18.25;17.25;;;;;19.85;72.26;100994.53;5091202;27;50042;-71
2022/09/02 06:16:02;;;;;;;;;18.00;17.25;;;;;19.79;73.04;100991.97;5073778;27;49914;-72
2022/09/02 06:18:28;;;;;;;;;19.25;19.25;;;;;19.72;72.76;100983.16;5070239;27;49732;-74
2022/09/02 06:20:53;;;;;;;;;22.25;18.25;;;;;19.81;71.44;100984.81;5085654;27;50032;-73
2022/09/02 06:23:19;;;;;;;;;23.00;20.75;;;;;19.81;71.99;100977.72;5071437;27;50317;-75
2022/09/02 06:25:46;;;;;;;;;15.00;13.50;;;;;19.84;71.24;100995.44;5083434;27;49852;-71
2022/09/02 06:28:13;;;;;;;;;17.00;16.75;;;;;19.86;71.92;101001.59;5073107;27;49924;-66
2022/09/02 06:30:40;;;;;;;;;16.50;16.50;;;;;19.81;71.26;100998.16;5076098;27;50095;-72
2022/09/02 06:33:06;;;;;;;;;17.00;15.25;;;;;19.81;71.07;101003.47;5079742;27;50708;-73
2022/09/02 06:35:36;;;;;;;;;12.25;12.25;;;;;19.77;71.42;100996.41;5085902;27;49950;-70
2022/09/02 06:38:02;;;;;;;;;17.75;15.00;;;;;19.56;71.20;100958.50;5098095;27;49674;-69
2022/09/02 06:40:28;;;;;;;;;15.25;14.00;;;;;19.67;70.76;100980.53;5085448;27;51082;-70
2022/09/02 06:42:53;;;;;;;;;17.25;16.00;;;;;19.72;70.54;100984.03;5082509;27;51037;-69
2022/09/02 06:45:19;;;;;;;;;15.75;14.25;;;;;19.66;69.26;100981.44;5074648;27;49684;-68
2022/09/02 06:47:45;;;;;;;;;20.25;18.25;;;;;19.83;69.08;101005.22;5080949;27;50281;-68
2022/09/02 06:50:11;;;;;;;;;19.00;16.50;;;;;19.76;68.73;100999.97;5076731;27;49982;-68
2022/09/02 06:52:37;;;;;;;;;17.75;14.50;;;;;19.82;68.53;100986.59;5076754;27;50295;-70
2022/09/02 06:55:03;;;;;;;;;23.75;18.75;;;;;19.82;68.14;100970.59;5072950;27;49884;-76
2022/09/02 06:57:29;;;;;;;;;20.25;16.50;;;;;19.92;68.44;100959.78;5082577;27;49824;-75
2022/09/02 06:59:54;;;;;;;;;20.75;18.25;;;;;19.88;67.91;100943.84;5085271;27;49698;-75
2022/09/02 07:02:20;;;;;;;;;18.75;16.25;;;;;19.80;66.71;100935.13;5087545;27;50769;-75
2022/09/02 07:07:29;;;;;;;;;17.75;15.00;;;;;19.88;66.98;100934.09;5072172;27;49760;-75
2022/09/02 07:09:54;;;;;;;;;22.75;19.25;;;;;20.16;67.14;100979.84;5084914;27;49824;-76
2022/09/02 07:12:20;;;;;;;;;14.00;12.75;;;;;20.06;66.79;100974.69;5077341;27;50824;-77
2022/09/02 07:14:45;;;;;;;;;17.25;17.25;;;;;20.06;67.46;100967.56;5080177;27;49939;-78
2022/09/02 07:17:16;;;;;;;;;16.00;16.00;;;;;20.21;67.36;100982.47;5074451;27;49772;-70
2022/09/02 07:19:43;;;;;;;;;20.00;18.75;;;;;20.21;67.23;100978.00;5070924;27;50320;-69
2022/09/02 07:22:08;;;;;;;;;20.50;18.50;;;;;20.12;66.69;100975.47;5075076;27;51064;-72
2022/09/02 07:24:35;;;;;;;;;20.50;19.00;;;;;20.37;66.88;100997.31;5090062;27;49878;-68
2022/09/02 07:27:01;;;;;;;;;22.50;22.50;;;;;20.40;66.41;100991.06;5089447;27;49809;-69
2022/09/02 07:29:26;;;;;;;;;28.00;22.25;;;;;20.48;66.16;100989.19;5080644;27;49971;-73
2022/09/02 07:31:51;;;;;;;;;21.75;21.75;;;;;20.44;66.15;100958.13;5070424;27;50982;-69
2022/09/02 07:34:18;;;;;;;;;20.50;20.50;;;;;20.48;66.11;100959.84;5070442;27;49666;-71
2022/09/02 07:36:47;;;;;;;;;17.25;17.25;;;;;20.43;65.83;100959.91;5090325;27;49767;-70
2022/09/02 07:39:14;;;;;;;;;25.50;23.00;;;;;20.25;66.67;100930.84;5082068;27;49829;-69
2022/09/02 07:41:45;;;;;;;;;17.75;15.00;;;;;20.57;66.65;100976.56;5089826;27;50823;-69
2022/09/02 07:44:12;;;;;;;;;12.50;11.75;;;;;20.65;66.22;100964.88;5090337;27;49770;-73
2022/09/02 07:46:38;;;;;;;;;16.75;15.50;;;;;20.68;65.44;100967.50;5091661;27;49734;-69
2022/09/02 07:49:07;;;;;;;;;15.50;13.50;;;;;20.68;66.09;100962.19;5081162;27;49668;-82
2022/09/02 07:51:35;;;;;;;;;15.75;15.50;;;;;20.57;65.78;100954.38;5078659;27;49693;-81
2022/09/02 07:54:01;;;;;;;;;16.50;16.50;;;;;20.88;65.63;100978.69;5070857;27;49847;-72
2022/09/02 07:56:27;;;;;;;;;14.50;14.25;;;;;21.02;65.07;100994.44;5093086;27;50184;-69
2022/09/02 07:58:52;;;;;;;;;16.25;15.00;;;;;21.04;65.59;100990.88;5096190;27;49816;-68
2022/09/02 08:01:19;;;;;;;;;15.00;13.00;;;;;21.12;64.87;100996.03;5085733;27;50170;-71
2022/09/02 08:03:45;;;;;;;;;15.25;15.25;;;;;21.08;64.13;100970.31;5098232;27;49536;-75
2022/09/02 08:06:12;;;;;;;;;18.25;17.50;;;;;21.08;63.85;100989.88;5075446;27;49773;-73
2022/09/02 08:08:38;;;;;;;;;19.25;17.75;;;;;21.17;63.80;101012.88;5084300;27;49857;-70
2022/09/02 08:11:05;;;;;;;;;17.25;15.50;;;;;21.13;63.66;101028.06;5085840;27;49751;-68
2022/09/02 08:13:30;;;;;;;;;12.75;12.75;;;;;21.12;64.04;101010.25;5085608;27;50000;-69
2022/09/02 08:15:56;;;;;;;;;14.25;13.25;;;;;21.20;63.52;101022.59;5075270;27;49831;-68
2022/09/02 08:18:21;;;;;;;;;15.50;15.50;;;;;21.11;63.21;101018.31;5076969;27;49706;-70
2022/09/02 08:20:46;;;;;;;;;15.50;12.50;;;;;21.11;61.89;101020.97;5075294;27;50044;-70
2022/09/02 08:23:13;;;;;;;;;13.00;13.00;;;;;21.01;62.22;101027.38;5073449;27;49766;-69
2022/09/02 08:25:39;;;;;;;;;15.75;12.50;;;;;21.09;64.12;101057.50;5073274;27;49991;-70
2022/09/02 08:28:05;;;;;;;;;12.75;12.75;;;;;21.00;63.44;101050.53;5076643;27;49847;-68
2022/09/02 08:30:31;;;;;;;;;16.25;12.75;;;;;21.20;63.90;101081.34;5071910;27;52032;-67
2022/09/02 08:32:56;;;;;;;;;11.75;11.75;;;;;21.11;63.70;101072.56;5073461;27;49795;-70
2022/09/02 08:35:22;;;;;;;;;14.00;14.00;;;;;21.21;63.61;101080.41;5072756;27;50223;-68
2022/09/02 08:37:47;;;;;;;;;13.00;13.00;;;;;21.31;63.19;101084.72;5073585;27;49932;-70
2022/09/02 08:40:17;;;;;;;;;14.75;14.25;;;;;21.16;63.47;101051.16;5074334;27;49898;-85
2022/09/02 08:42:46;;;;;;;;;15.50;11.50;;;;;21.41;63.17;101088.97;5073220;27;49954;-76
2022/09/02 08:45:27;;;;;;;;;13.75;13.00;;;;;21.33;62.12;101075.78;5080696;27;49612;-71
2022/09/02 08:48:15;;;;;;;;;15.50;13.25;;;;;21.49;62.92;101095.06;5090335;27;49702;-66
2022/09/02 08:50:44;;;;;;;;;14.75;14.75;;;;;21.53;64.70;101099.47;5094372;27;49868;-67
2022/09/02 08:53:24;;;;;;;;;12.25;11.75;;;;;21.01;64.43;101001.56;5082245;27;49569;-67
2022/09/02 08:55:55;;;;;;;;;17.25;16.75;;;;;21.51;64.78;101085.22;5097736;27;49951;-68
2022/09/02 08:58:27;;;;;;;;;15.25;15.25;;;;;21.58;64.94;101092.22;5108995;27;49366;-69
2022/09/02 09:01:29;;;;;;;;;20.25;18.25;;;;;21.61;65.13;101083.25;5109101;27;50673;-68
2022/09/02 09:04:20;;;;;;;;;20.50;18.00;;;;;21.64;66.30;101085.88;5092089;27;49636;-68
2022/09/02 09:07:04;;;;;;;;;18.75;18.75;;;;;21.70;65.54;101086.63;5101280;27;49671;-68
2022/09/02 09:09:51;;;;;;;;;17.25;16.25;;;;;21.78;65.13;101080.25;5109411;27;49827;-63
2022/09/02 09:12:48;;;;;;;;;21.25;17.25;;;;;21.72;64.40;101062.56;5106332;27;51093;-64
2022/09/02 09:15:44;;;;;;;;;18.50;18.00;;;;;21.87;63.64;101077.41;5088323;27;49729;-68
2022/09/02 09:18:17;;;;;;;;;16.25;16.25;;;;;21.95;63.01;101078.13;5105887;27;49386;-67
2022/09/02 09:20:45;;;;;;;;;18.00;18.00;;;;;22.09;63.71;101073.38;5097901;27;49605;-63
2022/09/02 09:23:32;;;;;;;;;17.00;14.25;;;;;22.10;64.10;101060.88;5086855;27;51210;-65
2022/09/02 09:26:15;;;;;;;;;15.25;15.00;;;;;22.26;63.54;101079.25;5108308;27;49302;-66
2022/09/02 09:28:43;;;;;;;;;16.00;13.25;;;;;22.34;63.24;101070.19;5107613;27;49908;-72
2022/09/02 09:31:12;;;;;;;;;18.50;18.50;;;;;22.18;61.97;101029.50;5118649;27;49688;-68
2022/09/02 09:33:37;;;;;;;;;18.00;17.25;;;;;22.18;61.07;101038.41;5096858;27;49766;-74
2022/09/02 09:36:06;;;;;;;;;18.25;16.25;;;;;22.27;60.08;101048.03;5095828;27;50011;-68
2022/09/02 09:38:34;;;;;;;;;21.25;18.75;;;;;22.17;60.04;101025.97;5090422;27;49413;-65
2022/09/02 09:41:23;;;;;;;;;22.75;18.00;;;;;22.66;62.01;101056.03;5090556;27;49422;-64
2022/09/02 09:43:48;;;;;;;;;18.25;16.50;;;;;22.80;59.63;101044.09;5074298;27;50178;-67
2022/09/02 09:46:30;;;;;;;;;15.75;15.75;;;;;22.98;58.93;101050.81;5071862;27;49956;-64
2022/09/02 09:48:56;;;;;;;;;21.25;17.50;;;;;23.10;58.74;101033.53;5079185;27;49924;-64
2022/09/02 09:51:22;;;;;;;;;17.00;14.50;;;;;23.25;58.45;101029.53;5085737;27;49451;-74
2022/09/02 09:53:47;;;;;;;;;16.25;15.75;;;;;23.39;58.12;101022.03;5081911;27;50367;-64
2022/09/02 09:56:12;;;;;;;;;20.25;18.25;;;;;23.50;56.51;101036.00;5090600;27;49517;-64
2022/09/02 09:58:37;;;;;;;;;16.25;16.25;;;;;23.57;55.30;101032.22;5087083;27;49369;-68
2022/09/02 10:01:31;;;;;;;;;21.25;19.00;;;;;23.54;54.73;101021.56;5076675;27;49656;-63
2022/09/02 10:04:24;;;;;;;;;14.25;13.75;;;;;23.70;54.41;101022.94;5080498;27;51127;-62
2022/09/02 10:06:49;;;;;;;;;16.00;14.00;;;;;23.87;55.27;101024.25;5083234;27;49870;-64
2022/09/02 10:09:17;;;;;;;;;16.00;15.00;;;;;24.02;54.51;101033.59;5073510;27;49927;-63
2022/09/02 10:11:57;;;;;;;;;18.00;17.50;;;;;24.09;54.02;101022.66;5071807;27;50031;-63
2022/09/02 10:14:22;;;;;;;;;16.25;15.50;;;;;24.20;54.07;101012.47;5075029;27;50975;-67
2022/09/02 10:16:51;;;;;;;;;18.25;16.75;;;;;24.21;53.69;101035.69;5070697;27;49593;-71
2022/09/02 10:19:25;;;;;;;;;17.25;16.25;;;;;24.41;54.12;101024.34;5074126;27;49812;-67
2022/09/02 10:22:03;;;;;;;;;17.75;14.75;;;;;24.61;54.05;101017.44;5069794;27;50005;-67
2022/09/02 10:25:06;;;;;;;;;15.50;15.25;;;;;24.58;52.44;101013.06;5079032;27;50970;-73
2022/09/02 10:27:50;;;;;;;;;16.50;16.50;;;;;24.79;53.79;101015.03;5084807;27;49798;-70
2022/09/02 10:30:20;;;;;;;;;14.00;13.50;;;;;24.96;53.43;101009.09;5105168;27;49415;-69
2022/09/02 10:32:51;;;;;;;;;16.75;16.00;;;;;25.11;52.46;101005.03;5125221;27;49353;-68
2022/09/02 10:35:44;;;;;;;;;16.00;14.00;;;;;25.20;51.74;101003.81;5106256;27;49596;-66
2022/09/02 10:38:29;;;;;;;;;15.75;15.25;;;;;25.31;51.73;101009.69;5081039;27;50021;-75
2022/09/02 10:41:30;;;;;;;;;21.50;21.50;;;;;25.45;50.68;101004.66;5091305;27;49604;-71
2022/09/02 10:44:17;;;;;;;;;16.25;16.25;;;;;25.61;50.90;101005.88;5067433;27;49989;-71
2022/09/02 10:46:53;;;;;;;;;20.50;18.75;;;;;25.64;50.00;100997.66;5100861;27;49643;-65
2022/09/02 10:49:37;;;;;;;;;22.50;19.75;;;;;25.51;48.95;100992.81;5091107;27;49657;-65
2022/09/02 10:52:21;;;;;;;;;20.00;18.50;;;;;25.49;49.84;100986.63;5095957;27;49627;-64
2022/09/02 10:55:09;;;;;;;;;18.25;16.75;;;;;25.57;49.58;100993.44;5071804;27;50206;-65
2022/09/02 10:57:49;;;;;;;;;16.25;15.25;;;;;25.49;48.87;100994.69;5086039;27;50013;-64
2022/09/02 11:00:17;;;;;;;;;22.25;20.00;;;;;25.41;49.36;100994.97;5091251;27;49487;-64
2022/09/02 11:02:49;;;;;;;;;17.75;16.75;;;;;25.14;48.79;100972.69;5087205;27;49538;-65
2022/09/02 11:05:21;;;;;;;;;5.00;4.50;;;;;25.14;50.96;100985.22;5088723;27;49607;-65
2022/09/02 11:08:09;;;;;;;;;21.50;18.00;;;;;25.02;51.46;100976.69;5087419;27;50643;-67
2022/09/02 11:10:49;;;;;;;;;24.00;19.00;;;;;25.06;52.12;100978.31;5098957;27;49846;-66
2022/09/02 11:13:23;;;;;;;;;18.50;18.50;;;;;25.08;51.81;100987.19;5094400;27;50101;-68
2022/09/02 11:16:06;;;;;;;;;20.25;19.00;;;;;25.10;53.11;100979.97;5099664;27;49288;-65
2022/09/02 11:18:44;;;;;;;;;16.50;16.25;;;;;25.16;53.47;100975.31;5090499;27;50741;-65
2022/09/02 11:21:38;;;;;;;;;21.50;20.00;;;;;25.19;51.95;100973.41;5088326;27;50024;-67
2022/09/02 11:24:17;;;;;;;;;19.00;17.25;;;;;25.00;51.25;100978.53;5088671;27;50029;-66